Date,TemperatureHighF,TemperatureAvgF,TemperatureLowF,DewpointHighF,DewpointAvgF,DewpointLowF,HumidityHigh,HumidityAvg,HumidityLow,PressureMaxIn,PressureMinIn,WindSpeedMaxMPH,WindSpeedAvgMPH,GustSpeedMaxMPH,PrecipitationSumIn
2014-1-1,-0.6,-5.5,-11.4,-18.6,-22.3,-27.6,46,43,39,30.42,30.30,14,8,14,0.00
2014-1-2,7.3,-7.0,-15.9,-19.1,-26.5,-33.3,49,38,22,30.44,30.28,9,3,9,0.00
2014-1-3,29.8,9.8,-13.7,24.4,-2.5,-28.5,80,57,35,30.29,29.34,35,16,35,0.00
2014-1-4,34.7,13.3,-6.3,28.8,-0.4,-21.8,80,54,41,30.22,29.32,38,16,38,0.01
2014-1-5,-5.1,-12.5,-21.6,-21.6,-31.9,-43.8,49,37,27,30.32,30.21,29,12,29,0.00
2014-1-6,-12.6,-19.2,-23.8,-34.6,-39.9,-45.2,42,32,27,30.24,30.09,24,12,24,0.00
2014-1-7,5.0,-6.7,-18.6,-17.0,-24.0,-34.8,51,42,30,30.19,30.03,11,5,11,0.00
2014-1-8,8.8,-7.2,-16.2,-15.2,-24.0,-29.9,53,43,27,30.40,30.19,11,2,11,0.00
2014-1-9,23.2,10.2,-15.0,9.9,-2.8,-27.9,68,55,44,30.34,29.82,27,12,27,0.00
2014-1-10,29.1,24.8,17.6,26.1,19.8,8.8,88,81,68,29.82,29.44,22,10,22,0.00
2014-1-11,32.2,25.8,19.6,26.1,19.6,14.4,88,77,63,29.63,29.43,23,8,23,0.00
2014-1-12,40.5,32.9,22.5,29.7,23.9,16.5,78,69,62,29.57,29.27,19,6,19,0.00
2014-1-13,32.0,27.4,23.4,24.6,16.6,9.7,76,64,47,29.63,29.45,29,8,29,0.00
2014-1-14,25.7,16.8,4.5,19.6,6.3,-7.8,82,64,45,30.09,29.44,32,16,32,0.00
2014-1-15,25.0,10.3,-3.3,16.2,-0.8,-15.7,74,60,46,30.10,29.34,27,11,27,0.00
2014-1-16,34.9,17.4,5.5,27.9,4.6,-10.5,77,57,41,29.85,29.30,52,23,52,0.07
2014-1-17,15.8,4.7,-3.3,-4.0,-10.0,-17.1,62,50,36,30.01,29.70,29,11,29,0.00
2014-1-18,30.4,19.9,9.3,11.1,4.0,-4.4,74,61,38,29.90,29.49,24,11,24,0.00
2014-1-19,41.4,30.1,16.3,26.2,19.8,7.3,74,66,54,29.67,29.39,24,10,24,0.00
2014-1-20,29.1,11.7,-8.1,22.3,-3.7,-33.2,75,51,27,30.40,29.66,29,16,29,0.00
2014-1-21,2.7,-8.0,-20.9,-6.7,-24.7,-38.2,64,44,27,30.41,29.92,15,6,15,0.00
2014-1-22,5.0,-0.5,-12.3,-5.4,-17.2,-30.5,65,45,30,30.44,29.90,43,18,43,0.11
2014-1-23,4.1,-10.6,-20.7,-12.3,-28.0,-36.6,55,41,27,30.64,30.07,27,11,27,0.00
2014-1-24,33.3,23.8,4.3,28.8,11.6,-12.5,87,60,30,30.07,29.44,41,16,41,0.00
2014-1-25,20.1,5.1,0.1,-3.3,-16.6,-23.6,65,36,25,29.89,29.46,34,15,34,0.00
2014-1-26,15.1,3.7,-10.7,2.7,-9.7,-30.8,66,53,35,30.04,29.33,49,20,49,0.14
2014-1-27,-6.5,-13.3,-17.9,-29.4,-33.9,-39.3,45,34,25,30.34,30.04,34,14,34,0.00
2014-1-28,0.5,-9.4,-18.4,-21.5,-27.4,-34.2,48,40,29,30.30,30.00,20,8,20,0.00
2014-1-29,30.9,12.1,-7.6,15.8,-5.0,-22.9,64,46,30,30.01,29.51,27,9,27,0.00
2014-1-30,24.1,11.3,-8.7,12.9,-2.0,-26.0,74,55,37,30.00,29.44,30,14,30,0.00
2014-1-31,9.3,-2.7,-14.6,-8.7,-19.2,-27.9,57,45,32,30.08,29.93,17,5,17,0.00
2014-2-1,20.8,9.4,-3.3,5.5,-5.8,-19.5,60,49,42,30.16,29.84,21,9,21,0.00
2014-2-2,14.2,0.4,-13.4,-4.5,-14.3,-26.3,59,49,38,30.23,30.11,21,5,21,0.00
2014-2-3,16.5,6.3,-2.9,-1.8,-8.0,-14.1,64,52,43,30.30,30.09,14,3,14,0.00
2014-2-4,8.4,1.1,-5.3,-10.5,-16.4,-23.1,59,44,28,30.42,30.30,19,8,19,0.00
2014-2-5,3.2,-2.6,-10.8,-10.8,-19.1,-26.3,55,44,35,30.46,30.40,21,11,21,0.00
2014-2-6,4.8,-5.0,-14.1,-13.9,-20.7,-27.8,54,46,34,30.41,30.13,24,9,24,0.00
2014-2-7,12.6,0.4,-8.5,-9.9,-16.6,-24.5,60,44,28,30.14,30.07,21,9,21,0.00
2014-2-8,25.0,5.3,-4.7,4.3,-8.1,-15.9,65,54,30,30.11,30.02,5,1,5,0.00
2014-2-9,7.0,-1.9,-10.8,-9.4,-18.5,-26.7,60,44,34,30.33,23.67,24,10,24,0.00
2014-2-10,8.6,-6.2,-17.0,-16.4,-24.1,-32.4,50,41,28,30.41,30.33,11,4,11,0.00
2014-2-11,13.6,0.8,-18.4,2.3,-14.6,-33.7,61,47,38,30.39,29.97,27,10,27,0.00
2014-2-12,37.6,19.4,13.5,14.2,7.3,1.6,72,60,32,30.04,29.72,21,6,21,0.00
2014-2-13,28.8,15.9,2.3,20.3,4.9,-10.1,76,62,49,29.72,29.37,34,15,34,0.00
2014-2-14,15.3,4.3,-3.6,-3.3,-10.6,-15.7,56,49,41,29.98,29.70,17,8,17,0.00
2014-2-15,21.4,9.1,-3.5,11.3,-2.5,-14.8,69,59,50,30.54,29.71,21,7,21,0.00
2014-2-16,21.6,14.6,3.9,8.1,0.3,-6.0,66,53,40,30.17,29.87,28,10,28,0.00
2014-2-17,31.5,22.6,14.7,21.0,14.0,7.7,80,70,56,29.88,29.60,36,10,36,0.04
2014-2-19,36.1,35.5,34.9,26.6,26.0,25.3,68,68,68,29.63,29.61,17,16,17,0.00
2014-2-20,36.7,30.8,16.2,29.3,25.1,9.9,88,79,68,29.57,29.30,25,8,30,0.04
2014-2-21,12.7,9.3,4.5,5.7,-1.5,-6.0,76,61,53,29.73,29.30,21,15,21,0.20
2014-2-22,14.9,9.5,1.4,-2.7,-5.9,-10.7,57,49,44,30.02,29.73,18,11,18,0.24
2014-2-23,16.0,6.4,-3.6,-2.0,-8.2,-15.7,56,50,41,30.21,30.08,25,11,25,0.00
2014-2-24,13.5,3.9,-7.8,-3.3,-11.2,-21.5,63,49,34,30.27,30.20,27,9,27,0.00
2014-2-25,5.4,-2.9,-11.2,-15.5,-21.7,-32.6,56,40,29,30.29,30.20,30,12,30,0.00
2014-2-26,19.6,1.0,-13.5,2.1,-16.9,-29.9,50,42,27,30.28,29.57,46,19,46,0.05
2014-2-27,9.5,-7.9,-17.3,-21.5,-33.6,-42.9,34,26,21,30.15,29.89,28,7,28,0.00
2014-2-28,13.6,3.1,-9.2,-0.9,-15.5,-33.3,55,41,28,30.13,29.82,27,9,27,0.00
2014-3-1,2.3,-4.8,-11.2,-12.8,-27.0,-35.1,48,33,25,30.46,30.12,26,15,26,0.00
2014-3-2,4.8,-7.8,-19.1,-20.7,-30.2,-41.4,42,32,24,30.49,30.42,18,6,18,0.00
2014-3-3,9.1,-1.7,-19.1,-3.3,-19.2,-34.8,63,43,28,30.47,30.16,13,4,13,0.00
2014-3-4,18.1,11.7,6.1,0.1,-2.5,-6.3,63,52,44,30.24,30.10,17,7,17,0.00
2014-3-5,27.7,17.2,8.4,6.1,0.7,-6.2,62,48,35,30.39,30.24,17,7,17,0.00
2014-3-6,27.9,20.9,12.7,17.4,10.6,1.4,73,64,57,30.26,29.74,29,15,29,0.00
2014-3-7,30.9,27.0,19.0,26.4,18.2,7.9,83,69,57,30.16,29.71,30,12,30,0.00
2014-3-8,31.6,20.1,7.0,15.4,5.8,-3.1,70,54,35,30.29,30.09,12,5,12,0.00
2014-3-9,43.9,32.2,14.2,33.1,21.6,-11.9,77,65,56,30.09,29.59,25,10,25,0.00
2014-3-10,51.8,42.8,34.7,34.3,31.6,-11.9,81,65,49,29.67,29.55,14,6,14,0.00
2014-3-11,42.6,37.8,27.9,30.2,23.5,-11.9,71,57,39,30.00,29.67,29,11,29,0.00
2014-3-12,31.3,22.8,14.4,12.7,4.7,-1.3,60,46,29,30.10,29.96,30,8,30,0.00
2014-3-13,50.4,37.3,20.5,36.0,26.3,8.8,76,65,51,29.96,29.47,21,9,21,0.00
2014-3-14,42.4,36.0,24.1,35.1,24.6,9.9,75,63,46,29.92,29.46,41,15,41,0.00
2014-3-15,30.7,23.1,16.5,11.5,6.7,-5.3,65,50,33,30.37,29.92,18,9,18,0.00
2014-3-16,26.4,18.8,8.2,9.9,-2.6,-11.4,56,39,25,30.44,29.94,17,8,17,0.00
2014-3-17,39.2,29.7,22.8,25.0,18.3,9.9,72,62,53,29.94,29.50,27,14,27,0.00
2014-3-18,32.4,29.0,26.2,26.1,21.7,17.4,87,74,60,29.79,29.59,24,14,24,0.00
2014-3-19,37.4,30.2,24.4,23.9,20.3,15.1,84,67,53,29.93,29.77,18,11,21,0.01
2014-3-20,46.8,34.0,20.1,30.9,22.9,14.9,86,65,43,29.96,29.83,14,4,14,0.00
2014-3-21,42.6,35.3,31.8,32.0,26.0,22.5,77,69,63,29.83,29.67,33,8,33,0.00
2014-3-23,18.1,16.3,14.9,3.0,1.9,0.9,57,52,46,30.30,30.29,1,0,1,0.04
2014-3-24,31.1,20.9,10.2,17.2,6.8,-2.0,68,55,28,30.30,30.05,30,5,30,0.02
2014-3-25,24.6,15.7,7.2,5.7,-3.9,-14.4,59,41,31,30.24,30.07,33,13,33,0.00
2014-3-26,40.8,27.4,10.2,24.4,11.7,-3.1,61,52,35,30.10,29.50,31,7,31,0.00
2014-3-27,41.2,36.3,30.7,37.8,32.6,24.6,95,87,55,29.73,29.43,26,11,26,0.20
2014-3-28,35.8,29.3,23.2,24.8,14.5,4.6,79,55,31,30.21,29.73,24,9,24,0.02
2014-3-29,43.9,32.7,17.1,26.1,13.9,2.8,80,49,24,30.24,29.98,20,1,20,0.00
2014-3-30,59.4,45.2,37.0,37.9,32.3,24.8,73,61,43,29.98,29.72,34,12,34,0.00
2014-3-31,53.4,45.9,31.8,42.8,36.5,26.2,84,70,61,29.72,29.30,27,11,27,0.08
2014-4-1,35.1,27.2,18.1,27.5,16.8,8.1,86,65,52,30.07,29.38,44,16,44,0.01
2014-4-2,42.3,31.0,18.5,20.7,15.0,-12.5,67,52,39,30.16,30.02,19,9,19,0.00
2014-4-3,37.4,34.5,31.1,28.4,24.1,17.2,89,67,44,30.04,29.82,26,13,26,0.00
2014-4-4,41.9,35.7,28.9,24.6,22.6,20.1,77,60,44,30.01,29.90,24,7,24,0.02
2014-4-5,47.3,36.3,21.6,35.2,26.4,-12.5,83,68,53,30.06,29.88,21,8,21,0.00
2014-4-6,67.3,49.2,39.4,43.3,35.1,27.9,81,59,40,29.89,29.76,26,7,26,0.00
2014-4-7,58.5,48.5,38.5,42.6,37.0,30.2,94,67,39,29.80,29.73,25,8,25,0.00
2014-4-8,52.2,41.8,33.3,32.7,27.5,-12.5,73,58,34,29.96,29.79,25,12,25,0.00
2014-4-9,70.2,52.7,33.3,48.4,36.2,-12.5,76,55,38,29.93,29.44,24,4,24,0.00
2014-4-10,59.7,51.2,40.5,45.0,29.9,-12.5,69,47,20,29.89,29.49,34,13,34,0.00
2014-4-11,68.4,51.9,39.7,39.0,32.7,-12.5,75,51,10,29.93,29.85,11,1,11,0.00
2014-4-12,54.7,49.4,42.1,44.8,40.6,31.8,95,73,45,29.85,29.68,36,13,36,0.06
2014-4-13,41.9,38.4,32.0,39.2,32.3,-12.5,97,79,58,29.93,29.71,35,18,35,0.00
2014-4-14,39.4,29.8,24.4,21.0,9.2,-15.9,65,44,10,30.08,29.91,42,22,42,0.01
2014-4-15,41.7,28.3,16.7,8.6,4.1,-12.6,64,38,20,30.13,29.99,21,7,21,0.00
2014-4-16,34.0,29.8,27.7,30.2,25.3,3.0,99,86,27,30.00,29.86,36,18,36,0.00
2014-4-17,44.4,35.2,25.9,27.9,23.8,19.0,88,69,44,30.26,29.98,31,11,31,0.01
2014-4-18,51.1,35.7,20.3,30.6,25.1,17.2,88,64,43,30.32,30.12,18,7,22,0.00
2014-4-19,67.8,51.7,42.1,50.4,39.3,27.3,88,63,49,30.12,29.92,35,13,35,0.00
2014-4-20,80.1,59.6,39.2,45.9,39.6,29.1,99,56,17,30.01,29.89,14,4,14,0.00
2014-4-21,67.1,56.5,41.9,52.0,38.8,-12.6,89,54,24,30.06,29.83,36,12,36,0.00
2014-4-22,61.2,47.5,33.6,35.6,30.1,-12.6,84,54,10,30.11,30.00,27,8,27,0.00
2014-4-23,47.1,43.3,40.3,40.8,33.2,-12.6,97,70,44,30.04,29.84,25,12,25,0.30
2014-4-24,46.2,41.7,36.7,44.6,40.3,-12.6,99,95,83,29.85,29.64,21,9,21,0.35
2014-4-25,63.5,47.9,35.6,46.0,40.0,-12.6,99,77,47,29.90,29.66,25,9,25,0.01
2014-4-26,56.3,45.5,33.6,40.8,32.9,-12.6,93,64,10,29.99,29.84,30,13,30,0.07
2014-4-27,45.9,40.4,36.5,40.6,37.8,-12.6,99,91,70,29.87,29.58,42,22,42,2.29
2014-4-28,44.8,42.1,40.1,41.2,39.8,37.6,99,92,79,29.68,29.57,42,20,42,1.57
2014-4-29,40.8,37.1,34.0,37.4,34.9,-12.6,98,92,82,29.76,29.64,41,23,41,0.54
2014-4-30,46.4,40.4,36.1,40.5,37.5,-12.6,99,90,10,29.75,29.71,29,17,29,0.02
2014-5-1,49.6,43.0,37.0,41.5,39.0,-12.6,99,86,71,29.80,29.69,27,14,27,0.04
2014-5-2,60.4,49.7,41.0,46.4,40.7,36.1,91,72,54,29.79,29.55,26,7,26,0.00
2014-5-3,58.8,49.8,42.4,41.0,35.6,-12.6,77,59,37,29.93,29.67,28,13,28,0.00
2014-5-4,61.2,47.7,33.8,35.6,27.2,19.4,78,49,22,30.09,29.93,25,7,25,0.00
2014-5-5,71.8,57.2,47.7,37.0,33.3,27.1,63,42,21,29.97,29.87,18,7,18,0.00
2014-5-6,64.8,56.1,43.3,40.8,38.0,33.1,83,53,33,29.96,23.67,34,13,34,0.00
2014-5-7,66.6,58.3,51.6,51.8,45.0,37.6,78,61,53,29.78,29.62,27,14,27,0.00
2014-5-8,59.0,54.9,50.0,56.5,52.9,49.1,99,93,78,29.72,29.47,34,12,34,1.38
2014-5-9,58.6,51.7,46.4,57.6,46.1,39.4,99,82,53,29.77,29.44,29,14,29,0.01
2014-5-10,70.5,56.2,38.3,55.4,44.0,30.9,99,68,29,29.84,29.72,29,8,29,0.07
2014-5-11,71.1,61.6,46.6,58.5,53.9,46.4,99,78,55,29.86,29.72,17,6,17,0.39
2014-5-12,58.5,50.2,48.2,56.8,49.7,48.0,99,99,95,29.77,29.66,22,10,22,0.61
2014-5-13,53.8,48.1,43.3,48.0,40.5,22.1,96,76,53,30.14,29.76,30,16,30,0.00
2014-5-14,59.7,48.4,38.7,39.4,34.3,26.1,89,61,30,30.17,30.11,25,8,30,0.00
2014-5-15,48.6,43.5,37.9,35.4,32.2,26.6,82,65,45,30.17,30.07,26,12,26,0.00
2014-5-16,56.1,46.9,38.3,34.0,28.2,17.2,81,52,24,30.08,29.99,21,6,21,0.00
2014-5-17,69.8,55.6,41.2,41.2,32.1,22.3,73,45,18,30.01,29.93,16,4,16,0.00
2014-5-18,73.8,62.5,49.1,45.0,37.3,30.7,62,42,22,30.02,29.91,22,3,22,0.00
2014-5-19,62.4,56.8,51.3,53.4,39.9,38.7,99,64,42,29.95,29.70,29,11,29,0.89
2014-5-20,79.5,64.9,50.4,62.6,55.4,50.0,99,71,43,29.85,29.71,13,4,13,0.01
2014-5-21,64.8,58.6,51.6,60.4,48.6,45.7,93,70,53,30.10,29.82,116,11,116,0.00
2014-5-22,73.2,59.0,44.1,49.3,44.7,38.8,98,63,32,30.17,29.99,18,4,18,0.00
2014-5-23,74.5,56.5,45.3,51.1,47.6,44.4,99,76,39,30.20,30.14,8,2,8,0.00
2014-5-24,71.4,61.8,68.5,46.9,30.3,-99.9,45,39,42,29.80,29.80,28,-105,28,0.00
2014-6-11,82.6,73.5,64.4,64.9,60.0,57.3,99,64,43,29.93,29.85,12,4,17,0.21
2014-6-12,66.0,60.3,56.3,65.0,50.8,45.3,99,72,49,30.19,29.85,22,10,30,0.01
2014-6-13,79.3,66.8,52.3,52.7,47.8,43.9,84,53,30,30.24,30.08,8,2,11,0.00
2014-6-14,68.2,62.9,57.2,59.1,54.8,49.6,96,75,55,30.16,29.91,21,8,29,0.44
2014-6-15,-999.9,-999.9,-999.9,-999.9,-999.9,-999.9,-999,-999,-999,-999.90,-999.90,0,0,0,0.00
2014-6-16,70.5,53.1,-1.3,63.7,41.1,-14.7,86,63,44,30.42,29.75,24,9,34,0.01
2014-6-17,88.0,74.5,59.9,69.5,63.4,57.8,95,70,44,30.00,29.85,8,2,12,0.00
2014-6-18,81.1,74.0,67.5,69.7,67.6,63.5,97,81,62,30.07,29.92,20,9,26,0.12
2014-6-19,76.5,69.2,64.8,68.8,66.4,64.3,99,91,75,30.16,29.98,28,10,37,1.50
2014-6-20,86.1,75.6,67.1,68.4,64.0,55.0,99,72,37,30.08,29.65,11,4,20,0.04
2014-6-21,89.4,74.3,59.7,66.1,61.4,56.3,99,68,34,29.89,29.77,9,3,13,0.00
2014-6-22,80.6,71.7,66.5,69.6,65.4,61.3,94,81,63,29.87,29.74,11,3,15,0.00
2014-6-23,82.2,73.1,62.7,71.2,62.8,56.9,99,74,45,29.83,29.75,9,3,13,0.00
2014-6-24,84.5,73.1,61.7,66.9,62.7,57.7,96,73,44,29.94,29.82,15,4,17,1.84
2014-6-25,68.5,60.4,52.8,59.7,56.2,52.3,98,86,70,30.05,29.94,13,5,16,0.00
2014-6-26,83.1,69.7,53.4,69.2,62.5,52.3,99,79,58,30.04,29.78,17,7,23,0.00
2014-6-27,72.1,70.7,69.8,67.9,67.1,66.3,92,89,83,29.83,29.78,11,7,17,0.00
2014-7-11,85.1,79.0,72.6,74.4,72.8,71.5,97,82,68,29.75,29.68,9,3,12,0.00
2014-7-12,78.9,72.5,66.9,71.5,67.3,57.0,99,85,49,29.76,29.67,8,2,13,0.00
2014-7-13,70.3,65.4,59.7,66.0,59.3,47.3,98,82,44,29.75,29.65,9,3,16,0.00
2014-7-16,82.9,67.5,53.0,56.5,41.0,14.4,98,52,11,29.85,29.74,4,0,5,0.00
2014-7-17,82.4,73.1,55.9,57.8,32.9,14.3,96,35,11,29.80,29.72,7,2,11,0.00
2014-7-18,81.1,71.4,59.9,60.2,38.9,14.3,90,43,11,29.80,29.66,16,6,26,0.00
2014-7-19,78.9,70.7,66.7,64.6,61.6,15.1,83,74,12,29.69,29.62,15,8,23,0.00
2014-7-27,78.2,71.6,66.7,64.3,48.0,15.1,85,53,12,29.84,29.69,22,14,35,0.02
2014-7-29,73.7,67.1,62.9,54.5,19.2,8.3,74,19,11,29.83,29.79,4,1,8,0.00
2014-7-30,83.1,70.7,57.3,60.5,39.7,14.4,97,47,11,29.86,29.77,8,1,12,0.00
2014-7-31,86.3,72.9,58.2,62.8,40.1,14.4,95,44,11,29.81,29.72,3,0,4,0.00
2014-8-1,89.9,73.1,59.3,65.9,49.2,21.2,99,59,11,29.82,29.77,3,0,4,0.00
2014-8-4,74.5,65.7,63.7,66.0,44.7,15.6,83,58,14,29.95,29.92,10,2,14,0.00
2014-8-5,86.9,69.7,56.3,63.3,42.9,14.4,99,54,11,30.00,29.93,11,4,19,0.00
2014-8-6,88.2,73.9,55.2,62.9,37.1,14.5,99,41,11,29.97,27.64,7,2,13,0.00
2014-8-7,86.5,73.4,59.7,64.6,41.7,14.4,99,46,11,29.95,29.87,8,2,14,0.00
2014-8-8,87.4,74.8,64.4,63.7,41.0,14.4,89,43,11,29.96,29.90,6,1,10,0.00
2014-8-9,83.3,73.2,65.3,64.4,40.1,14.4,89,44,11,29.98,29.91,12,3,19,0.00
2014-8-10,83.8,72.7,67.3,70.0,56.5,21.3,99,70,11,29.92,29.81,9,3,15,0.40
2014-8-11,78.8,70.0,60.6,68.5,45.3,8.5,99,58,11,29.93,29.80,17,9,32,0.15
2014-8-12,81.0,68.5,54.3,59.0,36.5,14.4,99,47,11,29.95,29.86,12,5,24,0.00
2014-8-13,88.9,72.9,60.8,61.5,38.1,8.6,90,40,11,29.96,29.88,7,1,11,0.00
2014-8-14,83.5,70.0,57.6,57.0,33.1,7.7,93,38,11,30.00,29.84,2,0,4,0.00
2014-8-15,90.0,75.7,63.0,69.0,48.5,21.3,92,52,11,29.86,29.72,4,1,6,0.00
2014-8-16,91.6,75.8,65.7,72.4,60.6,21.3,99,73,11,29.79,29.69,9,2,14,0.00
2014-8-17,77.9,71.3,67.1,73.0,68.9,64.9,97,92,80,29.85,29.71,11,6,19,0.09
2014-8-18,88.5,75.4,68.2,73.2,52.0,14.4,99,61,11,29.71,29.50,8,3,17,0.00
2014-8-19,85.1,71.1,63.0,67.3,52.8,21.3,99,68,11,29.66,29.53,9,4,16,0.00
2014-8-20,86.7,73.2,61.9,68.0,51.0,15.2,99,60,11,29.74,29.66,9,4,17,0.01
2014-8-21,79.9,73.2,67.1,74.6,70.5,65.3,99,91,80,29.73,29.61,11,6,23,0.74
2014-8-22,83.3,72.7,67.8,71.8,69.6,67.1,99,90,64,29.90,29.72,9,4,13,0.00
2014-8-23,77.7,69.8,65.7,73.8,68.4,65.4,99,95,81,29.88,29.75,13,6,20,0.00
2014-8-24,87.6,78.7,70.5,78.0,73.3,64.8,97,84,65,29.76,29.64,15,8,26,0.00
2014-8-25,76.3,69.5,62.4,66.8,59.4,53.1,99,72,50,29.93,29.70,10,4,17,0.00
2014-8-26,77.9,63.5,52.5,59.0,52.8,45.4,92,71,32,30.08,29.93,7,2,14,0.01
2014-8-27,84.0,67.9,56.7,61.0,58.2,54.9,98,73,44,30.09,29.97,7,2,11,0.02
2014-8-28,73.0,67.0,59.7,66.8,62.1,57.4,94,85,70,29.99,29.75,11,6,18,0.00
2014-8-29,73.4,69.5,66.4,71.1,68.7,65.9,99,97,87,29.75,29.59,8,4,14,1.13
2014-8-30,80.4,70.3,64.8,68.5,65.4,62.5,99,86,57,29.73,29.63,11,4,17,0.04
2014-8-31,85.1,70.9,61.2,72.4,66.0,60.6,99,86,61,29.76,29.48,17,7,29,0.37
2014-9-1,79.3,69.4,60.4,66.2,48.5,7.5,99,63,11,29.67,29.48,11,4,20,0.02
2014-9-2,81.5,68.7,57.9,60.9,37.2,8.1,99,47,11,29.76,29.67,9,3,19,0.00
2014-9-3,75.2,65.9,58.5,58.7,18.8,7.4,94,22,11,29.73,29.51,12,6,22,0.15
2014-9-4,89.8,73.6,63.3,31.5,19.7,8.0,15,13,11,29.77,29.47,16,7,29,0.00
2014-9-5,68.0,58.1,48.7,17.1,7.3,0.4,15,13,11,30.03,29.76,12,6,24,0.00
2014-9-6,80.4,63.3,47.3,24.3,11.3,0.4,15,13,11,30.06,29.97,7,2,12,0.00
2014-9-7,79.7,65.0,51.1,24.3,12.8,0.4,15,13,11,30.00,29.85,10,3,18,0.00
2014-9-8,77.5,65.9,57.6,24.3,14.0,7.4,15,13,11,29.85,29.67,16,8,27,0.00
2014-9-9,77.2,65.9,55.2,67.9,23.0,1.7,73,24,11,29.73,29.59,9,4,15,0.01
2014-9-10,77.2,34.5,4.1,67.9,26.1,-5.3,87,71,63,30.03,29.56,24,15,38,0.40
2014-9-11,60.1,49.0,41.0,45.5,40.4,35.1,99,75,42,30.27,30.02,11,5,19,0.00
2014-9-12,54.9,47.4,39.6,43.2,37.7,27.3,99,73,36,30.32,30.22,13,4,21,0.00
2014-9-13,62.4,50.1,35.2,44.3,37.8,32.6,99,67,37,30.23,30.00,13,5,24,0.00
2014-9-14,64.4,55.6,47.1,46.6,43.7,38.4,92,66,40,30.02,29.96,10,6,22,0.00
2014-9-15,48.9,44.6,41.9,43.3,42.4,41.5,99,92,78,30.10,30.08,0,0,2,0.02
2014-9-16,72.7,55.8,40.1,48.8,43.9,39.8,99,69,35,30.08,29.87,8,2,16,0.00
2014-9-17,82.8,63.8,52.7,57.0,52.4,48.6,97,69,38,29.93,29.81,13,2,21,0.00
2014-9-18,76.5,59.1,45.5,57.9,51.3,44.7,99,78,44,29.99,29.85,12,6,18,0.00
2014-9-19,75.7,65.3,59.5,67.6,59.8,53.1,99,83,70,29.85,29.52,15,6,24,0.01
2014-9-20,76.5,65.6,56.8,66.8,58.8,51.8,99,80,47,29.75,29.55,20,6,47,0.26
2014-9-21,69.1,58.2,50.7,51.9,49.2,45.3,95,74,44,30.12,27.01,14,8,26,0.01
2014-9-22,75.6,59.2,44.2,54.4,50.4,43.7,99,76,42,30.14,30.03,8,2,14,0.00
2014-9-23,75.4,62.1,48.6,56.4,52.5,48.3,99,74,44,30.09,30.00,13,4,23,0.01
2014-9-24,65.3,60.7,57.7,56.3,54.7,52.5,94,81,68,30.06,30.01,13,8,23,0.07
2014-9-25,80.8,71.0,58.3,64.2,61.7,58.0,99,74,55,30.08,30.02,9,4,17,0.00
2014-9-26,81.5,69.0,57.0,60.5,58.3,54.6,99,72,42,30.07,29.97,13,5,21,0.00
2014-9-27,83.3,72.1,63.1,62.9,59.7,56.1,87,67,41,30.03,29.89,12,6,23,0.00
2014-9-28,84.9,71.1,57.6,62.7,59.4,57.2,99,70,40,30.02,29.91,9,2,15,0.00
2014-9-29,66.4,55.0,43.3,62.5,50.1,41.2,99,84,61,30.05,29.92,15,10,25,0.08
2014-9-30,58.3,48.9,41.5,47.6,43.4,40.5,98,82,63,30.00,29.72,17,8,28,0.00
2014-10-1,57.4,53.9,50.5,57.1,51.9,46.6,99,93,80,29.74,29.64,12,6,21,0.05
2014-10-2,60.1,55.3,48.7,57.1,54.2,48.5,99,96,84,29.75,29.62,10,2,17,0.24
2014-10-3,51.1,44.9,38.7,50.6,36.2,26.3,99,73,45,29.71,29.61,22,14,36,0.06
2014-10-4,50.7,43.1,38.1,34.8,31.5,28.1,85,64,45,29.69,29.57,22,12,37,0.01
2014-10-5,50.5,41.7,33.4,38.6,32.5,28.1,93,71,52,29.58,29.44,11,5,22,0.00
2014-10-6,63.7,47.4,34.5,41.7,37.5,31.6,98,71,41,29.44,29.30,13,6,24,0.00
2014-10-7,60.3,50.9,44.6,43.9,37.1,25.1,83,61,31,29.75,29.36,18,6,30,0.00
2014-10-8,57.2,47.3,37.2,38.6,32.9,27.1,89,60,32,29.99,29.75,16,6,27,0.00
2014-10-9,56.1,43.1,32.9,35.7,31.4,27.1,88,65,41,30.11,29.99,9,3,17,0.00
2014-10-10,54.3,41.3,30.4,38.6,31.8,28.3,99,72,38,30.16,30.03,11,3,25,0.00
2014-10-11,58.5,38.3,27.0,37.1,31.2,25.6,99,80,35,30.11,30.04,9,2,17,0.00
2014-10-12,64.2,57.3,52.2,48.6,39.1,29.5,83,53,28,29.75,29.65,18,10,28,0.00
2014-10-13,54.7,52.0,50.2,53.6,50.5,48.2,99,94,84,29.74,29.66,15,6,27,0.06
2014-10-14,65.3,55.4,45.5,48.4,42.4,33.3,99,70,32,29.91,29.71,23,10,30,0.00
2014-10-15,73.9,51.2,34.5,44.0,38.9,33.8,99,69,28,29.94,29.76,7,1,12,0.00
2014-10-16,73.2,55.3,38.3,49.5,42.0,36.5,99,66,35,29.76,29.47,14,6,27,0.00
2014-10-17,57.2,52.1,46.4,49.3,44.2,39.6,84,75,63,29.97,29.50,20,12,33,0.00
2014-10-18,56.7,46.4,35.1,41.5,37.6,33.8,98,73,47,30.13,29.98,12,4,19,0.00
2014-10-19,71.1,54.2,36.7,46.4,42.6,35.9,99,68,39,29.97,29.67,13,7,23,0.00
2014-10-20,64.4,52.7,42.3,45.1,42.1,38.4,97,70,40,30.00,29.78,14,6,22,0.00
2014-10-21,59.2,47.1,33.3,41.9,39.0,33.0,99,76,50,30.09,30.00,12,6,20,0.00
2014-10-22,61.5,51.5,41.4,44.5,41.2,38.0,88,69,51,30.07,29.90,18,10,29,0.00
2014-10-23,56.7,54.4,52.0,54.2,51.3,44.3,98,90,64,29.91,29.87,11,5,21,0.06
2014-10-25,63.9,54.0,40.3,37.7,28.8,18.7,72,42,18,29.97,29.92,17,8,29,0.00
2014-10-26,65.5,49.1,30.4,34.3,27.7,19.4,95,51,18,29.96,29.54,16,6,25,0.00
2014-10-27,66.0,51.5,40.8,48.6,39.3,32.0,98,66,38,29.62,29.47,16,5,25,0.01
2014-10-28,46.8,42.4,40.1,42.6,37.0,31.5,99,82,67,29.88,29.60,21,11,33,0.00
2014-10-29,45.3,38.2,34.9,34.7,31.6,28.8,84,77,63,30.06,29.89,20,6,30,0.00
2014-10-30,47.5,40.4,31.3,39.2,32.1,9.4,90,74,34,30.29,29.93,26,8,39,0.00
2014-10-31,43.5,31.0,22.8,17.3,14.0,8.9,70,50,25,30.46,30.29,15,6,22,0.00
2014-11-1,44.4,33.1,21.6,22.4,18.5,13.4,76,56,39,30.37,30.05,17,7,26,0.00
2014-11-2,58.8,46.7,36.7,33.2,26.2,18.9,56,46,30,30.06,29.75,18,10,33,0.00
2014-11-3,54.3,48.2,43.0,47.4,40.4,31.5,87,75,57,29.76,29.65,14,6,22,0.00
2014-11-4,52.7,43.2,33.8,37.5,32.4,26.5,84,66,49,29.91,29.75,19,10,29,0.00
2014-11-5,43.2,37.1,31.3,41.0,34.6,27.0,99,91,80,29.96,29.76,15,6,25,0.13
2014-11-6,43.5,36.7,31.8,33.3,31.3,29.0,94,81,58,30.19,29.96,13,7,21,0.00
2014-11-7,47.1,39.0,30.4,44.3,33.0,27.7,95,79,68,30.09,29.58,33,10,48,0.08
2014-11-8,43.3,37.8,33.1,34.3,25.9,21.3,79,62,45,29.95,29.69,23,12,40,0.00
2014-11-9,38.8,34.9,29.3,32.4,18.3,-2.4,82,53,19,29.73,29.63,14,6,22,0.00
2014-11-10,30.4,25.9,23.9,25.4,21.3,10.1,94,84,42,29.86,29.56,30,17,39,0.00
2014-11-11,25.0,22.0,15.8,19.6,14.3,5.2,86,72,58,30.15,29.84,21,12,31,0.00
2014-11-12,24.4,20.1,14.0,16.3,11.6,5.8,78,69,62,30.22,30.15,14,7,21,0.00
2014-11-13,25.0,19.7,15.8,15.0,9.1,3.4,77,63,51,30.28,30.22,15,11,24,0.00
2014-11-14,23.9,13.1,2.1,7.9,2.3,-4.7,77,62,44,30.28,30.20,13,3,17,0.00
2014-11-15,23.0,13.1,-1.7,16.9,6.8,-10.7,85,75,64,30.21,29.98,5,1,7,0.00
2014-11-16,20.1,11.8,5.4,16.4,1.9,-7.4,85,64,45,29.98,29.73,14,6,24,0.00
2014-11-17,16.9,10.2,5.5,0.9,-3.8,-6.5,63,53,44,29.90,29.78,22,13,33,0.00
2014-11-18,17.4,13.2,6.1,9.3,0.6,-6.9,72,56,45,29.92,29.63,12,7,20,0.00
2014-11-19,24.4,20.1,14.5,14.2,9.2,3.1,76,62,50,29.87,29.60,21,11,34,0.00
2014-11-20,11.5,5.5,1.6,-2.6,-5.8,-7.2,67,59,50,29.99,29.93,2,1,4,0.00
2014-11-21,32.5,19.9,0.3,26.2,9.7,-9.5,77,64,49,30.00,29.58,20,9,34,0.00
2014-11-22,32.9,32.8,32.7,26.5,26.4,26.3,77,77,77,29.58,29.58,15,13,29,0.00
2014-11-24,19.8,17.4,14.5,11.4,6.9,4.3,70,63,58,29.65,29.23,21,17,33,0.01
2014-11-25,24.8,20.2,9.3,12.8,7.6,0.2,66,57,51,30.08,30.01,7,4,11,0.00
2014-11-26,26.6,21.2,6.3,18.4,9.6,-14.3,82,61,32,30.42,30.02,15,8,22,0.00
2014-11-27,18.0,4.9,-4.9,-3.4,-12.5,-17.4,63,44,25,30.51,30.24,10,5,15,0.00
2014-11-28,21.9,16.3,6.3,13.8,6.6,-3.5,74,65,55,30.24,29.67,10,6,17,0.00
2014-11-29,19.8,19.8,19.8,13.2,13.2,13.2,75,75,75,29.67,29.66,4,4,7,0.00
2014-11-30,5.5,4.9,4.5,-10.3,-11.1,-12.3,48,46,43,30.00,29.92,12,8,22,0.00
2014-12-1,12.7,2.5,-4.2,-11.0,-21.0,-27.4,46,32,18,30.29,29.90,18,7,27,0.00
2014-12-2,21.2,15.8,6.3,8.7,0.8,-11.3,68,51,41,29.89,29.48,19,9,27,0.00
2014-12-3,23.0,15.2,8.6,5.7,1.6,-2.4,68,54,42,29.85,29.53,14,5,22,0.00
2014-12-4,34.7,25.3,12.0,19.1,6.5,-1.0,66,47,22,29.86,29.61,14,7,22,0.00
2014-12-5,32.9,28.3,18.1,27.4,22.7,12.7,85,79,61,29.95,29.61,9,4,14,0.00
2014-12-6,38.3,24.0,13.3,18.1,11.0,5.7,83,58,38,30.19,29.95,7,2,11,0.00
2014-12-7,35.8,30.8,26.1,31.1,22.4,14.1,91,71,59,30.05,29.54,18,10,28,0.00
2014-12-8,34.7,28.0,19.4,32.6,21.2,10.8,92,76,63,29.88,29.50,19,11,27,0.01
2014-12-9,21.4,17.4,12.0,17.3,10.6,4.1,85,74,63,30.03,29.88,11,4,16,0.00
2014-12-10,28.2,25.5,21.4,22.4,20.5,17.3,85,81,78,29.95,29.78,10,6,16,0.00
2014-12-11,32.7,29.3,27.3,30.1,25.4,22.3,91,85,79,29.80,29.71,9,5,15,0.00
2014-12-12,37.8,34.5,32.7,37.0,31.2,29.7,97,87,82,29.74,29.60,12,7,19,0.00
2014-12-13,46.6,44.7,37.6,45.5,43.6,36.8,98,96,94,29.93,29.59,6,4,10,0.00
2014-12-14,50.4,48.6,46.6,49.6,47.7,45.5,98,97,95,29.93,29.79,9,6,15,0.01
2014-12-15,50.2,38.1,25.5,49.6,37.1,21.7,99,96,84,29.91,29.71,21,8,34,0.17
2014-12-16,25.3,18.8,12.4,21.5,11.9,4.2,85,72,63,30.28,29.91,19,14,32,0.00
2014-12-17,20.7,12.7,8.2,8.4,3.5,0.0,76,66,53,30.33,30.27,9,4,14,0.00
2014-12-18,26.2,16.5,7.9,17.2,8.4,0.5,78,70,59,30.33,30.25,6,2,10,0.00
2014-12-19,30.0,25.5,20.7,25.9,19.4,13.1,85,78,72,30.27,30.14,9,6,14,0.00
2014-12-20,31.8,30.5,29.7,28.8,26.0,24.4,92,83,78,30.15,30.05,14,8,22,0.00
2014-12-21,37.9,34.4,31.3,36.6,31.8,26.4,96,90,82,30.06,29.71,13,8,21,0.01
2014-12-22,38.7,36.6,34.9,37.4,34.4,31.8,96,91,88,29.71,29.59,15,9,22,0.13
2014-12-23,36.1,35.2,34.2,32.0,31.1,30.4,89,85,81,29.89,29.65,17,12,25,0.00
2014-12-24,35.6,33.6,31.1,30.8,29.3,26.8,86,84,80,29.88,29.59,13,6,20,0.00
2014-12-25,33.3,31.5,29.8,30.4,28.0,25.6,93,87,82,29.88,29.58,12,4,20,0.01
2014-12-26,32.0,29.6,25.3,30.0,25.4,21.5,93,84,75,30.10,29.87,14,8,21,0.01
2014-12-27,26.2,20.1,9.1,21.5,10.6,-0.8,85,68,35,30.08,30.01,14,7,21,0.00
2014-12-28,26.8,13.7,5.0,14.5,1.6,-8.4,72,59,43,30.35,30.04,11,4,14,0.00
2014-12-29,7.9,4.2,-0.8,-7.2,-10.3,-14.5,55,50,40,30.56,30.35,10,6,14,0.00
2015-1-1,22.3,15.6,7.9,10.9,-0.8,-10.5,62,48,40,30.17,30.06,11,6,17,0.00
2015-1-2,26.6,17.3,2.5,17.3,4.1,-11.0,68,56,39,30.20,29.97,10,5,18,0.00